Time;durP1;ratioP1;P1;durP2;ratioP2;P2;SDS_P1;SDS_P2;PMS_P1;PMS_P2;Temp;Humidity;BMP_temperature;BMP_pressure;BME280_temperature;BME280_humidity;BME280_pressure;Samples;Min_cycle;Max_cycle;Signal;HPM_P1;HPM_P2
2022/07/28 00:01:28;;;;;;;12.13;11.02;;;;;;;;;;4971446;28;20034;-71
2022/07/28 00:03:53;;;;;;;12.35;11.18;;;;;;;;;;4978563;28;20041;-71
2022/07/28 00:06:18;;;;;;;12.43;11.23;;;;;;;;;;4979387;28;20030;-71
2022/07/28 00:08:44;;;;;;;12.20;11.10;;;;;;;;;;4982079;28;20434;-70
2022/07/28 00:11:09;;;;;;;12.48;11.35;;;;;;;;;;4981288;28;20096;-72
2022/07/28 00:13:35;;;;;;;11.68;10.65;;;;;;;;;;4982204;28;20403;-71
2022/07/28 00:16:00;;;;;;;12.30;11.10;;;;;;;;;;4980862;28;20026;-71
2022/07/28 00:18:25;;;;;;;11.63;10.45;;;;;;;;;;4978467;28;20511;-71
2022/07/28 00:20:51;;;;;;;12.27;11.18;;;;;;;;;;4981263;28;20431;-74
2022/07/28 00:23:16;;;;;;;12.05;10.95;;;;;;;;;;4979368;28;20041;-73
2022/07/28 00:25:41;;;;;;;12.27;11.27;;;;;;;;;;4981169;28;20041;-72
2022/07/28 00:28:07;;;;;;;12.10;10.90;;;;;;;;;;4977962;28;20026;-74
2022/07/28 00:30:32;;;;;;;11.43;10.43;;;;;;;;;;4982308;28;20030;-75
2022/07/28 00:32:57;;;;;;;11.45;10.50;;;;;;;;;;4981210;28;20571;-75
2022/07/28 00:35:23;;;;;;;13.50;12.20;;;;;;;;;;4976165;28;20037;-73
2022/07/28 00:37:49;;;;;;;13.30;12.10;;;;;;;;;;4980035;28;20030;-73
2022/07/28 00:40:14;;;;;;;12.20;11.20;;;;;;;;;;4979665;28;20133;-75
2022/07/28 00:42:39;;;;;;;11.07;10.02;;;;;;;;;;4975120;28;20065;-74
2022/07/28 00:45:05;;;;;;;13.18;11.88;;;;;;;;;;4977505;28;20026;-73
2022/07/28 00:47:30;;;;;;;11.98;10.88;;;;;;;;;;4982901;28;20026;-73
2022/07/28 00:49:56;;;;;;;15.70;11.88;;;;;;;;;;4979507;28;20034;-72
2022/07/28 00:52:21;;;;;;;11.52;10.52;;;;;;;;;;4979684;28;20037;-71
2022/07/28 00:54:46;;;;;;;12.07;10.98;;;;;;;;;;4976823;28;20462;-75
2022/07/28 00:57:12;;;;;;;12.30;11.18;;;;;;;;;;4980871;28;20141;-77
2022/07/28 00:59:37;;;;;;;11.02;9.88;;;;;;;;;;4981879;28;20025;-76
2022/07/28 01:02:03;;;;;;;11.15;10.05;;;;;;;;;;4973366;28;20045;-73
2022/07/28 01:04:29;;;;;;;12.35;11.27;;;;;;;;;;4977767;28;20160;-73
2022/07/28 01:07:10;;;;;;;12.75;11.65;;;;;;;;;;4980793;28;20113;-71
2022/07/28 01:09:51;;;;;;;11.88;10.75;;;;;;;;;;4978472;28;20022;-72
2022/07/28 01:12:29;;;;;;;12.20;11.25;;;;;;;;;;4982653;28;20030;-72
2022/07/28 01:15:02;;;;;;;11.80;10.77;;;;;;;;;;4981712;28;20026;-70
2022/07/28 01:17:36;;;;;;;11.77;10.68;;;;;;;;;;4979617;28;20105;-76
2022/07/28 01:20:05;;;;;;;12.52;11.38;;;;;;;;;;4976687;28;20026;-73
2022/07/28 01:22:30;;;;;;;;;;;;;;;;;;4978014;28;20031;-70
2022/07/28 01:25:14;;;;;;;12.27;11.07;;;;;;;;;;4978265;28;19917;-72
2022/07/28 01:28:01;;;;;;;11.60;10.50;;;;;;;;;;4978550;28;20125;-71
2022/07/28 01:30:53;;;;;;;12.43;10.32;;;;;;;;;;4979349;28;20454;-73
2022/07/28 01:33:32;;;;;;;11.23;10.00;;;;;;;;;;4976961;28;20046;-71
2022/07/28 01:35:57;;;;;;;;;;;;;;;;;;4969615;28;20453;-76
2022/07/28 01:38:23;;;;;;;9.90;9.00;;;;;;;;;;4979498;28;20063;-75
2022/07/28 01:40:50;;;;;;;9.77;8.93;;;;;;;;;;4979072;28;20137;-75
2022/07/28 01:43:17;;;;;;;9.95;9.15;;;;;;;;;;4979458;28;20433;-70
2022/07/28 01:45:43;;;;;;;9.88;9.05;;;;;;;;;;4978262;28;20037;-71
2022/07/28 01:48:10;;;;;;;10.38;9.32;;;;;;;;;;4981645;28;20402;-75
2022/07/28 01:50:36;;;;;;;9.60;8.77;;;;;;;;;;4979846;28;20158;-74
2022/07/28 01:53:02;;;;;;;10.63;8.65;;;;;;;;;;4980985;28;20034;-75
2022/07/28 01:55:27;;;;;;;11.43;8.85;;;;;;;;;;4972555;28;20034;-71
2022/07/28 01:57:54;;;;;;;9.20;8.32;;;;;;;;;;4973776;28;20030;-72
2022/07/28 02:00:20;;;;;;;8.18;7.47;;;;;;;;;;4978655;28;20049;-73
2022/07/28 02:02:46;;;;;;;9.23;8.13;;;;;;;;;;4977799;28;20450;-73
2022/07/28 02:05:14;;;;;;;7.68;6.90;;;;;;;;;;4978272;28;20026;-73
2022/07/28 02:07:40;;;;;;;7.57;6.80;;;;;;;;;;4971049;28;20054;-71
2022/07/28 02:10:06;;;;;;;7.45;6.85;;;;;;;;;;4979889;28;20038;-72
2022/07/28 02:12:33;;;;;;;7.65;7.05;;;;;;;;;;4977041;28;20534;-72
2022/07/28 02:14:59;;;;;;;9.73;7.40;;;;;;;;;;4979940;28;20027;-71
2022/07/28 02:17:26;;;;;;;7.65;7.05;;;;;;;;;;4981242;28;20023;-71
2022/07/28 02:19:53;;;;;;;8.20;7.40;;;;;;;;;;4978636;28;20030;-75
2022/07/28 02:22:19;;;;;;;8.10;7.50;;;;;;;;;;4979280;28;20516;-73
2022/07/28 02:24:45;;;;;;;8.75;7.97;;;;;;;;;;4981429;28;20034;-72
2022/07/28 02:27:14;;;;;;;7.63;7.05;;;;;;;;;;4978107;28;21287;-72
2022/07/28 02:29:43;;;;;;;7.90;7.15;;;;;;;;;;4973114;28;20072;-75
2022/07/28 02:32:27;;;;;;;7.47;6.87;;;;;;;;;;4975560;28;20067;-72
2022/07/28 02:34:53;;;;;;;7.10;6.50;;;;;;;;;;4980648;28;20026;-72
2022/07/28 02:37:19;;;;;;;6.78;6.18;;;;;;;;;;4975422;28;20023;-72
2022/07/28 02:39:47;;;;;;;7.10;6.40;;;;;;;;;;4979449;28;20077;-72
2022/07/28 02:42:14;;;;;;;7.05;6.50;;;;;;;;;;4971961;28;20037;-77
2022/07/28 02:44:42;;;;;;;7.60;6.90;;;;;;;;;;4974998;28;20037;-72
2022/07/28 02:47:09;;;;;;;6.95;6.35;;;;;;;;;;4976161;28;20038;-76
2022/07/28 02:49:35;;;;;;;6.50;5.90;;;;;;;;;;4976223;28;20034;-76
2022/07/28 02:52:01;;;;;;;6.93;6.30;;;;;;;;;;4975799;28;20978;-72
2022/07/28 02:54:27;;;;;;;7.45;6.70;;;;;;;;;;4978823;28;20022;-71
2022/07/28 02:56:54;;;;;;;9.48;6.40;;;;;;;;;;4975131;28;20105;-76
2022/07/28 02:59:20;;;;;;;6.97;6.38;;;;;;;;;;4968092;28;20026;-74
2022/07/28 03:01:46;;;;;;;7.28;6.57;;;;;;;;;;4976163;28;20030;-76
2022/07/28 03:04:13;;;;;;;6.57;5.97;;;;;;;;;;4978526;28;20441;-72
2022/07/28 03:06:39;;;;;;;7.30;6.60;;;;;;;;;;4979359;28;20121;-73
2022/07/28 03:09:04;;;;;;;7.05;6.35;;;;;;;;;;4975778;28;20506;-72
2022/07/28 03:11:29;;;;;;;7.32;6.70;;;;;;;;;;4980414;28;20088;-75
2022/07/28 03:13:55;;;;;;;6.75;6.25;;;;;;;;;;4972381;28;20026;-74
2022/07/28 03:16:20;;;;;;;6.95;6.18;;;;;;;;;;4969641;28;20038;-73
2022/07/28 03:18:45;;;;;;;6.60;5.53;;;;;;;;;;4969174;28;20026;-76
2022/07/28 03:21:11;;;;;;;7.60;6.57;;;;;;;;;;4979316;28;20948;-75
2022/07/28 03:23:41;;;;;;;6.28;5.78;;;;;;;;;;4976215;28;20474;-72
2022/07/28 03:26:26;;;;;;;6.68;6.03;;;;;;;;;;4978606;28;20031;-76
2022/07/28 03:28:54;;;;;;;6.68;6.07;;;;;;;;;;4977182;28;20053;-72
2022/07/28 03:31:19;;;;;;;6.97;6.30;;;;;;;;;;4975355;28;20034;-77
2022/07/28 03:33:45;;;;;;;6.70;6.10;;;;;;;;;;4977589;28;20019;-71
2022/07/28 03:36:12;;;;;;;6.85;6.25;;;;;;;;;;4970246;28;20497;-73
2022/07/28 03:38:58;;;;;;;8.18;7.38;;;;;;;;;;4977288;28;20450;-73
2022/07/28 03:41:24;;;;;;;8.13;7.53;;;;;;;;;;4980226;28;20073;-74
2022/07/28 03:43:50;;;;;;;10.48;9.48;;;;;;;;;;4979102;28;20031;-72
2022/07/28 03:46:16;;;;;;;10.85;9.82;;;;;;;;;;4981770;28;20067;-71
2022/07/28 03:48:41;;;;;;;11.48;10.48;;;;;;;;;;4980170;28;20018;-72
2022/07/28 03:51:07;;;;;;;11.07;10.07;;;;;;;;;;4981599;28;20090;-72
2022/07/28 03:53:32;;;;;;;11.25;10.07;;;;;;;;;;4970349;28;20030;-75
2022/07/28 03:55:57;;;;;;;11.48;10.45;;;;;;;;;;4963996;28;20030;-75
2022/07/28 03:58:24;;;;;;;10.68;9.75;;;;;;;;;;4965175;28;20022;-74
2022/07/28 04:00:50;;;;;;;12.00;11.00;;;;;;;;;;4966730;28;20030;-72
2022/07/28 04:03:16;;;;;;;12.48;11.27;;;;;;;;;;4963971;28;20045;-72
2022/07/28 04:05:42;;;;;;;12.02;10.93;;;;;;;;;;4965542;28;20050;-71
2022/07/28 04:08:07;;;;;;;12.50;10.88;;;;;;;;;;4974973;28;20157;-71
2022/07/28 04:10:32;;;;;;;12.57;11.52;;;;;;;;;;4983057;28;20026;-75
2022/07/28 04:12:58;;;;;;;12.23;11.18;;;;;;;;;;4982534;28;20497;-70
2022/07/28 04:15:24;;;;;;;12.55;11.35;;;;;;;;;;4982108;28;20034;-73
2022/07/28 04:17:50;;;;;;;11.73;10.63;;;;;;;;;;4982295;28;20037;-71
2022/07/28 04:20:16;;;;;;;11.18;9.90;;;;;;;;;;4978351;28;20034;-72
2022/07/28 04:22:42;;;;;;;11.35;10.15;;;;;;;;;;4980855;28;20026;-76
2022/07/28 04:25:08;;;;;;;11.73;10.50;;;;;;;;;;4981428;28;20037;-73
2022/07/28 04:27:34;;;;;;;10.70;9.70;;;;;;;;;;4982700;28;20035;-72
2022/07/28 04:29:59;;;;;;;10.90;9.95;;;;;;;;;;4981290;28;20022;-72
2022/07/28 04:32:24;;;;;;;11.65;10.55;;;;;;;;;;4979088;28;20461;-71
2022/07/28 04:34:49;;;;;;;12.13;11.02;;;;;;;;;;4978625;28;20030;-71
2022/07/28 04:37:15;;;;;;;11.95;10.73;;;;;;;;;;4980131;28;22794;-72
2022/07/28 04:39:40;;;;;;;12.68;11.48;;;;;;;;;;4982122;28;20470;-71
2022/07/28 04:42:06;;;;;;;11.95;10.82;;;;;;;;;;4981685;28;20062;-71
2022/07/28 04:44:31;;;;;;;12.02;10.77;;;;;;;;;;4979682;28;20022;-71
2022/07/28 04:46:56;;;;;;;12.80;11.57;;;;;;;;;;4981363;28;20029;-71
2022/07/28 04:49:22;;;;;;;12.43;11.23;;;;;;;;;;4981743;28;20089;-71
2022/07/28 04:51:49;;;;;;;11.30;10.30;;;;;;;;;;4979169;28;20038;-71
2022/07/28 04:54:15;;;;;;;12.18;10.98;;;;;;;;;;4977137;28;20065;-73
2022/07/28 04:56:40;;;;;;;11.25;10.25;;;;;;;;;;4970567;28;20038;-74
2022/07/28 04:59:06;;;;;;;13.23;11.02;;;;;;;;;;4979984;28;20098;-72
2022/07/28 05:01:31;;;;;;;11.80;10.73;;;;;;;;;;4970396;28;20026;-75
2022/07/28 05:03:57;;;;;;;11.65;10.48;;;;;;;;;;4971833;28;20030;-73
2022/07/28 05:06:23;;;;;;;10.88;9.82;;;;;;;;;;4969221;28;20433;-71
2022/07/28 05:08:49;;;;;;;10.55;9.60;;;;;;;;;;4963121;28;20518;-69
2022/07/28 05:11:15;;;;;;;9.45;8.50;;;;;;;;;;4970582;28;20041;-73
2022/07/28 05:13:40;;;;;;;9.25;8.07;;;;;;;;;;4971290;28;20041;-70
2022/07/28 05:16:05;;;;;;;8.57;7.78;;;;;;;;;;4968250;28;20030;-74
2022/07/28 05:18:31;;;;;;;8.10;7.30;;;;;;;;;;4969366;28;20113;-72
2022/07/28 05:20:56;;;;;;;7.55;6.85;;;;;;;;;;4975101;28;20129;-70
2022/07/28 05:23:22;;;;;;;7.72;6.40;;;;;;;;;;4976996;28;20026;-71
2022/07/28 05:25:47;;;;;;;8.10;7.40;;;;;;;;;;4970420;28;20034;-69
2022/07/28 05:28:12;;;;;;;7.35;6.55;;;;;;;;;;4971830;28;20050;-69
2022/07/28 05:30:38;;;;;;;7.35;6.65;;;;;;;;;;4977720;28;20422;-68
2022/07/28 05:33:03;;;;;;;6.72;6.13;;;;;;;;;;4975508;28;20030;-69
2022/07/28 05:35:29;;;;;;;7.20;6.60;;;;;;;;;;4973227;28;20026;-69
2022/07/28 05:37:54;;;;;;;6.85;6.15;;;;;;;;;;4977585;28;20041;-70
2022/07/28 05:40:20;;;;;;;7.38;6.00;;;;;;;;;;4976859;28;20506;-67
2022/07/28 05:42:46;;;;;;;7.45;6.90;;;;;;;;;;4961510;28;20030;-72
2022/07/28 05:45:12;;;;;;;8.60;6.90;;;;;;;;;;4970365;28;20017;-70
2022/07/28 05:47:45;;;;;;;8.73;6.35;;;;;;;;;;4969869;28;20022;-69
2022/07/28 05:50:11;;;;;;;10.55;6.95;;;;;;;;;;4961055;28;20351;-72
2022/07/28 05:52:36;;;;;;;8.90;7.15;;;;;;;;;;4960732;28;20041;-73
2022/07/28 05:55:02;;;;;;;7.97;7.18;;;;;;;;;;4965922;28;20058;-74
2022/07/28 05:57:27;;;;;;;7.70;7.05;;;;;;;;;;4959796;28;20054;-70
2022/07/28 05:59:52;;;;;;;7.68;7.05;;;;;;;;;;4961544;28;20052;-71
2022/07/28 06:02:18;;;;;;;7.85;7.15;;;;;;;;;;4964180;28;20167;-71
2022/07/28 06:04:43;;;;;;;7.30;6.70;;;;;;;;;;4977574;28;20128;-70
2022/07/28 06:07:08;;;;;;;7.60;6.90;;;;;;;;;;4978933;28;20022;-69
2022/07/28 06:09:34;;;;;;;8.05;7.10;;;;;;;;;;4977180;28;20036;-70
2022/07/28 06:11:59;;;;;;;7.55;6.80;;;;;;;;;;4968620;28;20034;-69
2022/07/28 06:14:24;;;;;;;6.93;6.25;;;;;;;;;;4973876;28;20018;-73
2022/07/28 06:16:50;;;;;;;9.60;7.25;;;;;;;;;;4969377;28;20458;-71
2022/07/28 06:19:18;;;;;;;7.78;6.53;;;;;;;;;;4971992;28;20468;-71
2022/07/28 06:21:43;;;;;;;7.23;6.57;;;;;;;;;;4968873;28;20097;-70
2022/07/28 06:24:09;;;;;;;6.93;6.30;;;;;;;;;;4971830;28;20034;-72
2022/07/28 06:26:36;;;;;;;6.57;6.07;;;;;;;;;;4970141;28;20066;-73
2022/07/28 06:29:02;;;;;;;6.97;6.38;;;;;;;;;;4978670;28;20019;-73
2022/07/28 06:31:27;;;;;;;7.05;6.43;;;;;;;;;;4975005;28;20048;-73
2022/07/28 06:33:53;;;;;;;6.57;5.95;;;;;;;;;;4978939;28;20089;-73
2022/07/28 06:36:18;;;;;;;7.00;6.40;;;;;;;;;;4972376;28;20010;-73
2022/07/28 06:38:43;;;;;;;8.13;6.68;;;;;;;;;;4974084;28;20052;-72
2022/07/28 06:41:09;;;;;;;6.60;6.10;;;;;;;;;;4976454;28;20054;-72
2022/07/28 06:43:34;;;;;;;7.47;6.85;;;;;;;;;;4967783;28;20080;-74
2022/07/28 06:46:01;;;;;;;7.18;6.30;;;;;;;;;;4972094;28;20073;-74
2022/07/28 06:48:26;;;;;;;6.70;6.03;;;;;;;;;;4973989;28;20030;-74
2022/07/28 06:50:51;;;;;;;7.60;6.90;;;;;;;;;;4976379;28;20457;-73
2022/07/28 06:53:17;;;;;;;7.03;6.43;;;;;;;;;;4976936;28;20481;-74
2022/07/28 06:55:42;;;;;;;6.78;6.20;;;;;;;;;;4979709;28;20442;-73
2022/07/28 06:58:08;;;;;;;6.80;6.20;;;;;;;;;;4970163;28;20054;-71
2022/07/28 07:00:33;;;;;;;7.03;6.10;;;;;;;;;;4977258;28;20396;-71
2022/07/28 07:02:58;;;;;;;6.55;5.95;;;;;;;;;;4979429;28;20109;-72
2022/07/28 07:05:24;;;;;;;6.63;6.13;;;;;;;;;;4978088;28;20034;-72
2022/07/28 07:07:50;;;;;;;6.90;6.32;;;;;;;;;;4970877;28;20466;-71
2022/07/28 07:10:15;;;;;;;6.90;6.22;;;;;;;;;;4976826;28;20077;-70
2022/07/28 07:12:41;;;;;;;7.18;6.47;;;;;;;;;;4976528;28;20025;-76
2022/07/28 07:15:07;;;;;;;9.63;6.28;;;;;;;;;;4976843;28;20049;-74
2022/07/28 07:17:32;;;;;;;7.40;6.68;;;;;;;;;;4979195;28;20170;-71
2022/07/28 07:19:58;;;;;;;7.05;6.53;;;;;;;;;;4976526;28;20026;-71
2022/07/28 07:22:23;;;;;;;7.53;6.82;;;;;;;;;;4967368;28;20058;-78
2022/07/28 07:24:48;;;;;;;8.35;7.63;;;;;;;;;;4969810;28;20030;-75
2022/07/28 07:27:14;;;;;;;7.95;7.25;;;;;;;;;;4979002;28;20544;-76
2022/07/28 07:29:39;;;;;;;7.80;7.20;;;;;;;;;;4965200;28;20498;-77
2022/07/28 07:32:05;;;;;;;7.22;6.63;;;;;;;;;;4967604;28;20121;-73
2022/07/28 07:34:30;;;;;;;6.85;6.30;;;;;;;;;;4969062;28;20037;-75
2022/07/28 07:36:56;;;;;;;6.65;6.05;;;;;;;;;;4963731;28;20120;-75
2022/07/28 07:39:21;;;;;;;6.68;6.13;;;;;;;;;;4968645;28;20046;-73
2022/07/28 07:41:46;;;;;;;6.70;6.00;;;;;;;;;;4970779;28;20474;-74
2022/07/28 07:44:12;;;;;;;8.30;6.47;;;;;;;;;;4979591;28;20022;-73
2022/07/28 07:46:38;;;;;;;6.80;6.18;;;;;;;;;;4981442;28;20023;-73
2022/07/28 07:49:03;;;;;;;7.25;6.65;;;;;;;;;;4969275;28;20014;-79
2022/07/28 07:51:29;;;;;;;6.70;6.10;;;;;;;;;;4966025;28;20109;-73
2022/07/28 07:53:54;;;;;;;6.63;6.03;;;;;;;;;;4962797;28;20038;-72
2022/07/28 07:56:19;;;;;;;6.25;5.75;;;;;;;;;;4975319;28;20031;-77
2022/07/28 07:58:45;;;;;;;6.97;6.28;;;;;;;;;;4979220;28;20030;-75
2022/07/28 08:01:12;;;;;;;5.68;5.28;;;;;;;;;;4981355;28;20030;-75
2022/07/28 08:03:38;;;;;;;6.22;5.63;;;;;;;;;;4968591;28;20569;-75
2022/07/28 08:06:03;;;;;;;8.95;5.80;;;;;;;;;;4966524;28;20103;-77
2022/07/28 08:08:29;;;;;;;6.32;5.70;;;;;;;;;;4964619;28;20449;-75
2022/07/28 08:10:54;;;;;;;5.78;5.22;;;;;;;;;;4969318;28;20069;-78
2022/07/28 08:13:21;;;;;;;6.03;5.53;;;;;;;;;;4971186;28;20326;-74
2022/07/28 08:15:47;;;;;;;5.32;4.93;;;;;;;;;;4969672;28;20030;-76
2022/07/28 08:18:12;;;;;;;6.22;5.28;;;;;;;;;;4970599;28;20085;-74
2022/07/28 08:20:38;;;;;;;5.28;4.78;;;;;;;;;;4977521;28;20350;-72
2022/07/28 08:23:03;;;;;;;5.25;4.75;;;;;;;;;;4972723;28;20109;-73
2022/07/28 08:25:28;;;;;;;4.95;4.55;;;;;;;;;;4971084;28;20057;-76
2022/07/28 08:27:54;;;;;;;6.00;4.70;;;;;;;;;;4967789;28;20105;-74
2022/07/28 08:30:19;;;;;;;4.88;4.47;;;;;;;;;;4970925;28;20041;-78
2022/07/28 08:32:45;;;;;;;4.80;4.38;;;;;;;;;;4968966;28;20042;-76
2022/07/28 08:35:10;;;;;;;4.43;4.13;;;;;;;;;;4971143;28;20133;-74
2022/07/28 08:37:38;;;;;;;4.88;4.47;;;;;;;;;;4972659;28;20119;-74
2022/07/28 08:40:05;;;;;;;9.97;5.07;;;;;;;;;;4967550;28;20154;-80
2022/07/28 08:42:37;;;;;;;5.38;4.90;;;;;;;;;;4964451;28;20026;-76
2022/07/28 08:45:06;;;;;;;5.03;4.63;;;;;;;;;;4966505;28;20034;-75
2022/07/28 08:47:31;;;;;;;;;;;;;;;;;;4970458;28;20567;-76
2022/07/28 08:49:58;;;;;;;4.83;4.43;;;;;;;;;;4969830;28;20032;-78
2022/07/28 08:52:24;;;;;;;5.57;4.57;;;;;;;;;;4968972;28;20044;-75
2022/07/28 08:54:50;;;;;;;6.50;4.95;;;;;;;;;;4969543;28;20030;-77
2022/07/28 08:57:16;;;;;;;4.88;4.45;;;;;;;;;;4968856;28;20085;-76
2022/07/28 08:59:42;;;;;;;5.05;4.65;;;;;;;;;;4970102;28;20026;-75
2022/07/28 09:02:14;;;;;;;5.55;5.05;;;;;;;;;;4969284;28;20038;-74
2022/07/28 09:04:40;;;;;;;4.85;4.45;;;;;;;;;;4975815;28;20030;-78
2022/07/28 09:07:05;;;;;;;4.80;4.40;;;;;;;;;;4979122;28;20105;-77
2022/07/28 09:09:31;;;;;;;5.32;4.93;;;;;;;;;;4970619;28;20489;-77
2022/07/28 09:11:57;;;;;;;5.05;4.65;;;;;;;;;;4972592;28;20034;-77
2022/07/28 09:14:23;;;;;;;6.18;5.72;;;;;;;;;;4981338;28;20022;-76
2022/07/28 09:16:49;;;;;;;5.70;5.10;;;;;;;;;;4977149;28;20030;-74
2022/07/28 09:19:14;;;;;;;5.30;4.55;;;;;;;;;;4966226;28;20446;-75
2022/07/28 09:21:40;;;;;;;5.70;5.20;;;;;;;;;;4980103;28;20454;-75
2022/07/28 09:24:06;;;;;;;5.60;4.82;;;;;;;;;;4973136;28;20455;-73
2022/07/28 09:26:31;;;;;;;5.53;5.10;;;;;;;;;;4980800;28;20101;-74
2022/07/28 09:28:57;;;;;;;4.97;4.57;;;;;;;;;;4969988;28;20160;-75
2022/07/28 09:31:24;;;;;;;5.32;4.93;;;;;;;;;;4980263;28;20022;-75
2022/07/28 09:34:07;;;;;;;5.25;4.85;;;;;;;;;;4974481;28;20030;-76
2022/07/28 09:36:39;;;;;;;5.63;5.13;;;;;;;;;;4972674;28;20033;-76
2022/07/28 09:39:04;;;;;;;5.65;5.15;;;;;;;;;;4972766;28;20050;-76
2022/07/28 09:41:50;;;;;;;5.50;5.10;;;;;;;;;;4963938;28;20437;-75
2022/07/28 09:44:19;;;;;;;5.50;5.10;;;;;;;;;;4960599;28;20034;-75
2022/07/28 09:46:44;;;;;;;7.47;5.10;;;;;;;;;;4967388;28;20100;-76
2022/07/28 09:49:10;;;;;;;6.57;5.97;;;;;;;;;;4968585;28;20034;-73
2022/07/28 09:51:35;;;;;;;5.25;4.85;;;;;;;;;;4969103;28;20097;-75
2022/07/28 09:54:08;;;;;;;5.68;4.97;;;;;;;;;;4966994;28;20085;-75
2022/07/28 09:56:34;;;;;;;5.57;5.18;;;;;;;;;;4979574;28;20026;-75
2022/07/28 09:59:02;;;;;;;6.38;5.78;;;;;;;;;;4979568;28;20030;-75
2022/07/28 10:01:27;;;;;;;5.82;5.35;;;;;;;;;;4981221;28;20488;-74
2022/07/28 10:03:56;;;;;;;5.38;4.97;;;;;;;;;;4980368;28;20031;-75
2022/07/28 10:06:23;;;;;;;9.27;7.30;;;;;;;;;;4969612;28;20054;-75
2022/07/28 10:08:49;;;;;;;5.70;5.30;;;;;;;;;;4978397;28;20025;-76
2022/07/28 10:11:15;;;;;;;6.28;5.75;;;;;;;;;;4978889;28;20791;-74
2022/07/28 10:14:04;;;;;;;5.82;5.32;;;;;;;;;;4967833;28;20036;-74
2022/07/28 10:16:30;;;;;;;5.45;4.97;;;;;;;;;;4965981;28;20152;-76
2022/07/28 10:18:56;;;;;;;5.60;5.20;;;;;;;;;;4971462;28;20173;-75
2022/07/28 10:21:23;;;;;;;5.80;5.40;;;;;;;;;;4966349;28;20046;-75
2022/07/28 10:23:53;;;;;;;5.38;4.97;;;;;;;;;;4964941;28;20575;-77
2022/07/28 10:26:24;;;;;;;5.55;5.15;;;;;;;;;;4974911;28;20056;-78
2022/07/28 10:28:50;;;;;;;5.43;5.03;;;;;;;;;;4979587;28;20035;-75
2022/07/28 10:31:21;;;;;;;5.13;4.72;;;;;;;;;;4970430;28;20033;-76
2022/07/28 10:33:47;;;;;;;6.03;5.53;;;;;;;;;;4974789;28;20076;-75
2022/07/28 10:36:13;;;;;;;5.53;5.13;;;;;;;;;;4973195;28;20026;-75
2022/07/28 10:38:39;;;;;;;5.90;5.40;;;;;;;;;;4974529;28;20532;-76
2022/07/28 10:41:05;;;;;;;5.38;4.97;;;;;;;;;;4976040;28;20475;-75
2022/07/28 10:43:31;;;;;;;5.70;5.30;;;;;;;;;;4976655;28;20049;-79
2022/07/28 10:45:58;;;;;;;6.05;5.55;;;;;;;;;;4972307;28;20026;-77
2022/07/28 10:48:23;;;;;;;5.40;5.00;;;;;;;;;;4975861;28;20512;-79
2022/07/28 10:50:49;;;;;;;5.97;5.45;;;;;;;;;;4977807;28;20026;-76
2022/07/28 10:53:23;;;;;;;5.72;5.32;;;;;;;;;;4974251;28;20724;-77
2022/07/28 10:55:51;;;;;;;6.30;5.70;;;;;;;;;;4973309;28;20124;-77
2022/07/28 10:58:28;;;;;;;6.13;5.65;;;;;;;;;;4977164;28;20023;-78
2022/07/28 11:00:53;;;;;;;5.72;5.22;;;;;;;;;;4975611;28;20461;-77
2022/07/28 11:03:34;;;;;;;7.70;5.72;;;;;;;;;;4976999;28;20034;-77
2022/07/28 11:06:18;;;;;;;6.60;6.00;;;;;;;;;;4978875;28;20083;-75
2022/07/28 11:08:43;;;;;;;6.15;5.63;;;;;;;;;;4965128;28;20389;-76
2022/07/28 11:11:09;;;;;;;6.50;5.90;;;;;;;;;;4967060;28;20084;-73
2022/07/28 11:13:35;;;;;;;7.28;6.55;;;;;;;;;;4965044;28;20488;-78
2022/07/28 11:16:12;;;;;;;6.47;5.88;;;;;;;;;;4967232;28;20094;-76
2022/07/28 11:18:56;;;;;;;9.07;5.88;;;;;;;;;;4964499;28;20022;-76
2022/07/28 11:21:22;;;;;;;6.72;6.13;;;;;;;;;;4967205;28;20030;-75
2022/07/28 11:23:56;;;;;;;6.82;6.22;;;;;;;;;;4966575;28;20035;-76
2022/07/28 11:26:26;;;;;;;7.10;6.40;;;;;;;;;;4967639;28;20026;-76
2022/07/28 11:29:07;;;;;;;7.43;6.72;;;;;;;;;;4968018;28;20044;-76
2022/07/28 11:31:44;;;;;;;6.72;6.07;;;;;;;;;;4968973;28;20030;-78
2022/07/28 11:34:10;;;;;;;6.77;5.63;;;;;;;;;;4967231;28;20074;-77
2022/07/28 11:36:54;;;;;;;8.00;6.32;;;;;;;;;;4968108;28;20280;-74
2022/07/28 11:39:24;;;;;;;6.15;5.55;;;;;;;;;;4964082;28;20047;-78
2022/07/28 11:41:49;;;;;;;6.68;6.05;;;;;;;;;;4966939;28;20389;-75
2022/07/28 11:44:26;;;;;;;6.53;5.95;;;;;;;;;;4969829;28;20026;-75
2022/07/28 11:46:52;;;;;;;6.38;5.78;;;;;;;;;;4968076;28;20058;-79
2022/07/28 11:49:19;;;;;;;5.60;5.20;;;;;;;;;;4970444;28;20068;-77
2022/07/28 11:52:03;;;;;;;6.75;5.72;;;;;;;;;;4970330;28;20031;-76
2022/07/28 11:54:29;;;;;;;7.20;6.13;;;;;;;;;;4972964;28;20109;-79
2022/07/28 11:56:58;;;;;;;6.57;5.95;;;;;;;;;;4966659;28;20148;-79
2022/07/28 11:59:23;;;;;;;6.63;5.97;;;;;;;;;;4978202;28;20045;-77
2022/07/28 12:01:52;;;;;;;6.38;5.85;;;;;;;;;;4968451;28;20035;-80
2022/07/28 12:04:18;;;;;;;6.20;5.70;;;;;;;;;;4964931;28;20497;-77
2022/07/28 12:06:45;;;;;;;6.10;5.60;;;;;;;;;;4978458;28;20030;-75
2022/07/28 12:09:12;;;;;;;6.53;6.03;;;;;;;;;;4966294;28;20039;-77
2022/07/28 12:11:39;;;;;;;9.52;8.63;;;;;;;;;;4963523;28;20035;-76
2022/07/28 12:14:06;;;;;;;8.52;5.80;;;;;;;;;;4969336;28;20113;-78
2022/07/28 12:16:32;;;;;;;6.40;5.90;;;;;;;;;;4968152;28;20550;-78
2022/07/28 12:19:00;;;;;;;7.13;6.53;;;;;;;;;;4969037;28;20077;-76
2022/07/28 12:21:26;;;;;;;;;;;;;;;;;;4972080;28;20121;-77
2022/07/28 12:23:52;;;;;;;6.30;5.80;;;;;;;;;;4969398;28;20318;-78
2022/07/28 12:26:31;;;;;;;6.25;5.75;;;;;;;;;;4963720;28;20030;-79
2022/07/28 12:28:57;;;;;;;5.90;5.50;;;;;;;;;;4966875;28;20037;-76
2022/07/28 12:31:26;;;;;;;6.30;5.80;;;;;;;;;;4969945;28;20038;-76
2022/07/28 12:33:51;;;;;;;5.97;5.47;;;;;;;;;;4977130;28;20048;-76
2022/07/28 12:36:18;;;;;;;6.50;5.82;;;;;;;;;;4980975;28;20026;-76
2022/07/28 12:38:44;;;;;;;5.97;5.57;;;;;;;;;;4972888;28;20454;-76
2022/07/28 12:41:14;;;;;;;6.97;6.38;;;;;;;;;;4978008;28;20466;-77
2022/07/28 12:43:39;;;;;;;6.50;6.00;;;;;;;;;;4973748;28;20102;-76
2022/07/28 12:46:04;;;;;;;6.68;6.07;;;;;;;;;;4983318;28;20022;-76
2022/07/28 12:48:30;;;;;;;9.90;6.00;;;;;;;;;;4982259;28;20030;-79
2022/07/28 12:50:55;;;;;;;6.80;6.25;;;;;;;;;;4981404;28;20026;-76
2022/07/28 12:53:22;;;;;;;6.88;6.28;;;;;;;;;;4975179;28;20030;-78
2022/07/28 12:55:47;;;;;;;7.20;6.60;;;;;;;;;;4964946;28;20473;-77
2022/07/28 12:58:23;;;;;;;6.15;5.63;;;;;;;;;;4979849;28;20081;-78
2022/07/28 13:00:49;;;;;;;6.43;5.93;;;;;;;;;;4969352;28;20034;-75
2022/07/28 13:03:23;;;;;;;7.30;6.68;;;;;;;;;;4969672;28;20041;-78
2022/07/28 13:06:03;;;;;;;6.22;5.72;;;;;;;;;;4968134;28;20453;-79
2022/07/28 13:08:39;;;;;;;6.82;6.22;;;;;;;;;;4967443;28;20046;-76
2022/07/28 13:11:05;;;;;;;6.47;5.97;;;;;;;;;;4969672;28;20022;-76
2022/07/28 13:13:43;;;;;;;7.07;6.43;;;;;;;;;;4969002;28;20026;-75
2022/07/28 13:16:09;;;;;;;6.80;6.30;;;;;;;;;;4969085;28;20414;-76
2022/07/28 13:18:41;;;;;;;7.00;6.40;;;;;;;;;;4968019;28;20611;-76
2022/07/28 13:21:07;;;;;;;6.60;6.00;;;;;;;;;;4968738;28;20022;-76
2022/07/28 13:23:32;;;;;;;6.13;5.70;;;;;;;;;;4968365;28;20030;-77
2022/07/28 13:25:57;;;;;;;6.85;6.15;;;;;;;;;;4968784;28;20533;-77
2022/07/28 13:28:23;;;;;;;6.72;6.10;;;;;;;;;;4968804;28;20469;-76
2022/07/28 13:30:49;;;;;;;6.50;5.90;;;;;;;;;;4969071;28;20034;-78
2022/07/28 13:33:14;;;;;;;7.78;5.82;;;;;;;;;;4968969;28;20038;-76
2022/07/28 13:35:39;;;;;;;6.53;5.80;;;;;;;;;;4970571;28;20037;-78
2022/07/28 13:38:05;;;;;;;6.35;5.85;;;;;;;;;;4970805;28;20029;-77
2022/07/28 13:40:30;;;;;;;7.18;6.55;;;;;;;;;;4969384;28;20255;-77
2022/07/28 13:42:55;;;;;;;6.80;6.10;;;;;;;;;;4971017;28;20031;-76
2022/07/28 13:45:21;;;;;;;6.55;5.93;;;;;;;;;;4971047;28;20038;-76
2022/07/28 13:47:46;;;;;;;5.65;5.15;;;;;;;;;;4968194;28;20142;-76
2022/07/28 13:50:12;;;;;;;6.35;5.78;;;;;;;;;;4970324;28;20022;-77
2022/07/28 13:52:37;;;;;;;6.43;5.82;;;;;;;;;;4969908;28;20037;-76
2022/07/28 13:55:04;;;;;;;7.10;6.60;;;;;;;;;;4965946;28;20417;-75
2022/07/28 13:57:30;;;;;;;6.70;6.10;;;;;;;;;;4970497;28;20027;-77
2022/07/28 13:59:55;;;;;;;7.15;6.55;;;;;;;;;;4969742;28;20033;-76
2022/07/28 14:02:20;;;;;;;7.32;6.32;;;;;;;;;;4970414;28;20042;-77
2022/07/28 14:04:46;;;;;;;6.78;6.07;;;;;;;;;;4969520;28;20052;-76
2022/07/28 14:07:11;;;;;;;6.68;5.82;;;;;;;;;;4983889;28;20051;-76
2022/07/28 14:09:36;;;;;;;8.10;6.47;;;;;;;;;;4968604;28;20061;-76
2022/07/28 14:12:02;;;;;;;7.07;6.32;;;;;;;;;;4968687;28;20041;-75
2022/07/28 14:14:28;;;;;;;6.57;6.03;;;;;;;;;;4970441;28;20105;-77
2022/07/28 14:16:53;;;;;;;7.15;6.45;;;;;;;;;;4979492;28;20085;-78
2022/07/28 14:19:18;;;;;;;6.55;5.82;;;;;;;;;;4970527;28;20106;-75
2022/07/28 14:21:44;;;;;;;6.75;6.05;;;;;;;;;;4980364;28;20080;-75
2022/07/28 14:24:10;;;;;;;7.20;6.60;;;;;;;;;;4978042;28;20027;-75
2022/07/28 14:26:35;;;;;;;7.05;6.50;;;;;;;;;;4973733;28;20037;-76
2022/07/28 14:29:00;;;;;;;7.07;6.47;;;;;;;;;;4963996;28;20673;-76
2022/07/28 14:31:26;;;;;;;7.18;6.57;;;;;;;;;;4961637;28;20394;-75
2022/07/28 14:33:51;;;;;;;6.80;6.30;;;;;;;;;;4960543;28;20386;-76
2022/07/28 14:36:16;;;;;;;7.50;6.90;;;;;;;;;;4962493;28;20040;-76
2022/07/28 14:38:42;;;;;;;7.15;6.55;;;;;;;;;;4962255;28;20023;-76